Sioux Gateway Col. Bud Day Field
KSUX : now visible

Airfield :











YOU CAN JOIN US ON...

 
LOGIN :

Register | Disclaimer

   EN    FR    IT 

 









Legend :    VFR   Marginal VFR   IFR   Intensive IFR   Very Intensive IFR
Visi :
Ceiling :
>= 8 km
>= 3000ft
5 to 8 km
1000 to 3000 ft
1500m to 5 km
500 to 1000 ft
800 to 1500m
200 to 500 ft
< 800m
< 200 ft
Symbols :   Thunderstorms  Fog  Heavy snow  Heavy precipitations  Wind > 20 kt







- Airport Elevation : 1098 ft
- IATA code : SUX


KSUX - Sioux Gateway Col. Bud Day Field

CURRENT METAR :
  • 152052Z 32008KT 10SM BKN100 M12/M17 A3015 RMK AO2 SLP237 T11171167 55005

EXPIRED METARs :
  • 151952Z 33009KT 10SM BKN110 M12/M18 A3014 RMK AO2 SLP234 T11221178
  • 151852Z 32008KT 10SM OVC095 M13/M18 A3017 RMK AO2 SLP242 T11331183

TAF KSUX
Valid from the 15 at 18:00 until the 16 at 18:00 UTC


151720Z 1518/1618 35007KT P6SM OVC100
FM160200 02005KT P6SM OVC100
FM161000 10005KT P6SM SCT110
FM161600 12008KT P6SM BKN100
KZMP FIR / North America



MET'MAP, your aeronautical weather chart ! - Copyright ORBIFLY December 2007 - Disclaimer

ORBIFLY MET'MAP TEAM :

Programming & Development : Alexandra Zaïnal
Concept & Development : Baudouin d'Aumeries
Co-Development & Prog : Marc-Olivier Méhu
Technical & hardware support : Manuel Goepfert

Contact : metmap@orbifly.com




SOURCES & CREDITS :

   NOAA       Earth
Advisory